sensor_id;sensor_type;location;lat;lon;timestamp;P1;P2;P0
82667;PMS5003;72691;51.374;-0.176;2024-01-16T00:00:06;25;25;
82667;PMS5003;72691;51.374;-0.176;2024-01-16T00:02:31;25;23;
82667;PMS5003;72691;51.374;-0.176;2024-01-16T00:04:58;22;22;
82667;PMS5003;72691;51.374;-0.176;2024-01-16T00:07:22;25;22;
82667;PMS5003;72691;51.374;-0.176;2024-01-16T00:09:48;21;21;
82667;PMS5003;72691;51.374;-0.176;2024-01-16T00:12:13;20;17;
82667;PMS5003;72691;51.374;-0.176;2024-01-16T00:14:39;26;22;
82667;PMS5003;72691;51.374;-0.176;2024-01-16T00:17:04;20;19;
82667;PMS5003;72691;51.374;-0.176;2024-01-16T00:19:29;23;21;
82667;PMS5003;72691;51.374;-0.176;2024-01-16T00:21:55;23;21;
82667;PMS5003;72691;51.374;-0.176;2024-01-16T00:24:21;20;17;
82667;PMS5003;72691;51.374;-0.176;2024-01-16T00:26:46;20;18;
82667;PMS5003;72691;51.374;-0.176;2024-01-16T00:29:11;23;20;
82667;PMS5003;72691;51.374;-0.176;2024-01-16T00:31:37;21;21;
82667;PMS5003;72691;51.374;-0.176;2024-01-16T00:34:03;24;21;
82667;PMS5003;72691;51.374;-0.176;2024-01-16T00:36:28;18;18;
82667;PMS5003;72691;51.374;-0.176;2024-01-16T00:38:53;21;21;
82667;PMS5003;72691;51.374;-0.176;2024-01-16T00:41:19;18;17;
82667;PMS5003;72691;51.374;-0.176;2024-01-16T00:43:45;16;14;
82667;PMS5003;72691;51.374;-0.176;2024-01-16T00:46:10;20;20;
82667;PMS5003;72691;51.374;-0.176;2024-01-16T00:48:36;15;15;
82667;PMS5003;72691;51.374;-0.176;2024-01-16T00:51:01;19;17;
82667;PMS5003;72691;51.374;-0.176;2024-01-16T00:53:27;18;18;
82667;PMS5003;72691;51.374;-0.176;2024-01-16T00:55:52;19;19;
82667;PMS5003;72691;51.374;-0.176;2024-01-16T00:58:19;17;17;
82667;PMS5003;72691;51.374;-0.176;2024-01-16T01:00:43;18;14;
82667;PMS5003;72691;51.374;-0.176;2024-01-16T01:03:09;22;20;
82667;PMS5003;72691;51.374;-0.176;2024-01-16T01:05:34;19;18;
82667;PMS5003;72691;51.374;-0.176;2024-01-16T01:08:00;16;15;
82667;PMS5003;72691;51.374;-0.176;2024-01-16T01:10:25;16;16;
82667;PMS5003;72691;51.374;-0.176;2024-01-16T01:12:51;19;16;
82667;PMS5003;72691;51.374;-0.176;2024-01-16T01:15:17;18;16;
82667;PMS5003;72691;51.374;-0.176;2024-01-16T01:17:42;15;15;
82667;PMS5003;72691;51.374;-0.176;2024-01-16T01:20:08;16;15;
82667;PMS5003;72691;51.374;-0.176;2024-01-16T01:22:33;17;16;
82667;PMS5003;72691;51.374;-0.176;2024-01-16T01:24:58;18;18;
82667;PMS5003;72691;51.374;-0.176;2024-01-16T01:27:24;18;18;
82667;PMS5003;72691;51.374;-0.176;2024-01-16T01:29:49;19;17;
82667;PMS5003;72691;51.374;-0.176;2024-01-16T01:32:15;22;22;
82667;PMS5003;72691;51.374;-0.176;2024-01-16T01:34:41;14;14;
82667;PMS5003;72691;51.374;-0.176;2024-01-16T01:37:06;22;20;
82667;PMS5003;72691;51.374;-0.176;2024-01-16T01:39:31;20;20;
82667;PMS5003;72691;51.374;-0.176;2024-01-16T01:41:57;19;19;
82667;PMS5003;72691;51.374;-0.176;2024-01-16T01:44:22;20;20;
82667;PMS5003;72691;51.374;-0.176;2024-01-16T01:46:47;24;24;
82667;PMS5003;72691;51.374;-0.176;2024-01-16T01:49:13;21;20;
82667;PMS5003;72691;51.374;-0.176;2024-01-16T01:51:38;17;17;
82667;PMS5003;72691;51.374;-0.176;2024-01-16T01:54:04;19;19;
82667;PMS5003;72691;51.374;-0.176;2024-01-16T01:56:30;23;23;
82667;PMS5003;72691;51.374;-0.176;2024-01-16T01:58:56;22;22;
82667;PMS5003;72691;51.374;-0.176;2024-01-16T02:01:21;21;20;
82667;PMS5003;72691;51.374;-0.176;2024-01-16T02:03:46;24;23;
82667;PMS5003;72691;51.374;-0.176;2024-01-16T02:06:12;23;23;
82667;PMS5003;72691;51.374;-0.176;2024-01-16T02:08:37;24;23;
82667;PMS5003;72691;51.374;-0.176;2024-01-16T02:11:02;21;21;
82667;PMS5003;72691;51.374;-0.176;2024-01-16T02:13:28;20;19;
82667;PMS5003;72691;51.374;-0.176;2024-01-16T02:15:53;24;21;
82667;PMS5003;72691;51.374;-0.176;2024-01-16T02:18:18;17;17;
82667;PMS5003;72691;51.374;-0.176;2024-01-16T02:20:44;24;23;
82667;PMS5003;72691;51.374;-0.176;2024-01-16T02:23:10;21;19;
82667;PMS5003;72691;51.374;-0.176;2024-01-16T02:25:35;20;20;
82667;PMS5003;72691;51.374;-0.176;2024-01-16T02:28:01;21;19;
82667;PMS5003;72691;51.374;-0.176;2024-01-16T02:30:26;20;18;
82667;PMS5003;72691;51.374;-0.176;2024-01-16T02:32:53;23;23;
82667;PMS5003;72691;51.374;-0.176;2024-01-16T02:35:18;27;23;
82667;PMS5003;72691;51.374;-0.176;2024-01-16T02:37:43;19;19;
82667;PMS5003;72691;51.374;-0.176;2024-01-16T02:40:09;17;17;
82667;PMS5003;72691;51.374;-0.176;2024-01-16T02:42:34;19;19;
82667;PMS5003;72691;51.374;-0.176;2024-01-16T02:45:00;13;13;
82667;PMS5003;72691;51.374;-0.176;2024-01-16T02:47:25;15;15;
82667;PMS5003;72691;51.374;-0.176;2024-01-16T02:49:51;12;10;
82667;PMS5003;72691;51.374;-0.176;2024-01-16T02:52:16;13;13;
82667;PMS5003;72691;51.374;-0.176;2024-01-16T02:54:42;13;12;
82667;PMS5003;72691;51.374;-0.176;2024-01-16T02:57:07;11;11;
82667;PMS5003;72691;51.374;-0.176;2024-01-16T02:59:32;12;12;
82667;PMS5003;72691;51.374;-0.176;2024-01-16T03:01:59;9;9;
82667;PMS5003;72691;51.374;-0.176;2024-01-16T03:04:24;9;9;
82667;PMS5003;72691;51.374;-0.176;2024-01-16T03:06:49;11;11;
82667;PMS5003;72691;51.374;-0.176;2024-01-16T03:09:15;9;9;
82667;PMS5003;72691;51.374;-0.176;2024-01-16T03:11:40;8;8;
82667;PMS5003;72691;51.374;-0.176;2024-01-16T03:14:06;11;10;
82667;PMS5003;72691;51.374;-0.176;2024-01-16T03:16:31;7;7;
82667;PMS5003;72691;51.374;-0.176;2024-01-16T03:18:57;8;8;
82667;PMS5003;72691;51.374;-0.176;2024-01-16T03:21:22;8;8;
82667;PMS5003;72691;51.374;-0.176;2024-01-16T03:23:49;7;7;
82667;PMS5003;72691;51.374;-0.176;2024-01-16T03:26:14;8;8;
82667;PMS5003;72691;51.374;-0.176;2024-01-16T03:28:40;11;10;
82667;PMS5003;72691;51.374;-0.176;2024-01-16T03:31:05;10;8;
82667;PMS5003;72691;51.374;-0.176;2024-01-16T03:33:30;7;7;
82667;PMS5003;72691;51.374;-0.176;2024-01-16T03:35:56;8;8;
82667;PMS5003;72691;51.374;-0.176;2024-01-16T03:38:22;8;8;
82667;PMS5003;72691;51.374;-0.176;2024-01-16T03:40:48;7;7;
82667;PMS5003;72691;51.374;-0.176;2024-01-16T03:43:13;7;7;
82667;PMS5003;72691;51.374;-0.176;2024-01-16T03:45:38;11;11;
82667;PMS5003;72691;51.374;-0.176;2024-01-16T03:48:04;11;10;
82667;PMS5003;72691;51.374;-0.176;2024-01-16T03:50:30;8;8;
82667;PMS5003;72691;51.374;-0.176;2024-01-16T03:52:55;9;9;
82667;PMS5003;72691;51.374;-0.176;2024-01-16T03:55:21;14;12;
82667;PMS5003;72691;51.374;-0.176;2024-01-16T03:57:46;9;9;
82667;PMS5003;72691;51.374;-0.176;2024-01-16T04:00:12;12;11;
82667;PMS5003;72691;51.374;-0.176;2024-01-16T04:02:37;9;9;
82667;PMS5003;72691;51.374;-0.176;2024-01-16T04:05:04;12;11;
82667;PMS5003;72691;51.374;-0.176;2024-01-16T04:07:29;8;8;
82667;PMS5003;72691;51.374;-0.176;2024-01-16T04:09:54;8;8;
82667;PMS5003;72691;51.374;-0.176;2024-01-16T04:12:20;8;8;
82667;PMS5003;72691;51.374;-0.176;2024-01-16T04:14:45;9;9;
82667;PMS5003;72691;51.374;-0.176;2024-01-16T04:17:11;11;9;
82667;PMS5003;72691;51.374;-0.176;2024-01-16T04:19:37;11;11;
82667;PMS5003;72691;51.374;-0.176;2024-01-16T04:22:02;10;8;
82667;PMS5003;72691;51.374;-0.176;2024-01-16T04:24:28;10;10;
82667;PMS5003;72691;51.374;-0.176;2024-01-16T04:26:53;11;10;
82667;PMS5003;72691;51.374;-0.176;2024-01-16T04:29:19;11;11;
82667;PMS5003;72691;51.374;-0.176;2024-01-16T04:31:44;8;8;
82667;PMS5003;72691;51.374;-0.176;2024-01-16T04:34:10;12;12;
82667;PMS5003;72691;51.374;-0.176;2024-01-16T04:36:35;8;8;
82667;PMS5003;72691;51.374;-0.176;2024-01-16T04:39:01;8;8;
82667;PMS5003;72691;51.374;-0.176;2024-01-16T04:41:27;10;10;
82667;PMS5003;72691;51.374;-0.176;2024-01-16T04:43:52;10;10;
82667;PMS5003;72691;51.374;-0.176;2024-01-16T04:46:18;11;11;
82667;PMS5003;72691;51.374;-0.176;2024-01-16T04:48:43;9;8;
82667;PMS5003;72691;51.374;-0.176;2024-01-16T04:51:09;9;8;
82667;PMS5003;72691;51.374;-0.176;2024-01-16T04:53:35;8;8;
82667;PMS5003;72691;51.374;-0.176;2024-01-16T04:56:00;7;7;
82667;PMS5003;72691;51.374;-0.176;2024-01-16T04:58:26;10;10;
82667;PMS5003;72691;51.374;-0.176;2024-01-16T05:00:51;11;11;
82667;PMS5003;72691;51.374;-0.176;2024-01-16T05:03:17;7;7;
82667;PMS5003;72691;51.374;-0.176;2024-01-16T05:05:43;5;5;
82667;PMS5003;72691;51.374;-0.176;2024-01-16T05:08:08;10;10;
82667;PMS5003;72691;51.374;-0.176;2024-01-16T05:10:34;10;10;
82667;PMS5003;72691;51.374;-0.176;2024-01-16T05:13:00;10;10;
82667;PMS5003;72691;51.374;-0.176;2024-01-16T05:15:25;11;11;
82667;PMS5003;72691;51.374;-0.176;2024-01-16T05:17:51;12;10;
82667;PMS5003;72691;51.374;-0.176;2024-01-16T05:20:16;12;12;
82667;PMS5003;72691;51.374;-0.176;2024-01-16T05:22:42;12;12;
82667;PMS5003;72691;51.374;-0.176;2024-01-16T05:25:08;9;9;
82667;PMS5003;72691;51.374;-0.176;2024-01-16T05:27:33;11;9;
82667;PMS5003;72691;51.374;-0.176;2024-01-16T05:29:58;9;9;
82667;PMS5003;72691;51.374;-0.176;2024-01-16T05:32:24;12;12;
82667;PMS5003;72691;51.374;-0.176;2024-01-16T05:34:49;11;11;
82667;PMS5003;72691;51.374;-0.176;2024-01-16T05:37:15;12;12;
82667;PMS5003;72691;51.374;-0.176;2024-01-16T05:39:40;8;8;
82667;PMS5003;72691;51.374;-0.176;2024-01-16T05:42:06;11;11;
82667;PMS5003;72691;51.374;-0.176;2024-01-16T05:44:32;11;11;
82667;PMS5003;72691;51.374;-0.176;2024-01-16T05:46:56;15;12;
82667;PMS5003;72691;51.374;-0.176;2024-01-16T05:49:22;12;12;
82667;PMS5003;72691;51.374;-0.176;2024-01-16T05:51:48;9;9;
82667;PMS5003;72691;51.374;-0.176;2024-01-16T05:54:13;9;9;
82667;PMS5003;72691;51.374;-0.176;2024-01-16T05:56:39;12;11;
82667;PMS5003;72691;51.374;-0.176;2024-01-16T05:59:04;12;12;
82667;PMS5003;72691;51.374;-0.176;2024-01-16T06:01:29;11;11;
82667;PMS5003;72691;51.374;-0.176;2024-01-16T06:03:55;12;11;
82667;PMS5003;72691;51.374;-0.176;2024-01-16T06:06:21;9;9;
82667;PMS5003;72691;51.374;-0.176;2024-01-16T06:08:46;13;12;
82667;PMS5003;72691;51.374;-0.176;2024-01-16T06:11:11;13;12;
82667;PMS5003;72691;51.374;-0.176;2024-01-16T06:13:42;9;9;
82667;PMS5003;72691;51.374;-0.176;2024-01-16T06:16:03;10;10;
82667;PMS5003;72691;51.374;-0.176;2024-01-16T06:18:28;15;13;
82667;PMS5003;72691;51.374;-0.176;2024-01-16T06:20:53;10;9;
82667;PMS5003;72691;51.374;-0.176;2024-01-16T06:23:19;12;12;
82667;PMS5003;72691;51.374;-0.176;2024-01-16T06:25:45;13;12;
82667;PMS5003;72691;51.374;-0.176;2024-01-16T06:28:10;13;12;
82667;PMS5003;72691;51.374;-0.176;2024-01-16T06:30:36;12;12;
82667;PMS5003;72691;51.374;-0.176;2024-01-16T06:33:02;8;8;
82667;PMS5003;72691;51.374;-0.176;2024-01-16T06:35:27;8;8;
82667;PMS5003;72691;51.374;-0.176;2024-01-16T06:37:53;10;9;
82667;PMS5003;72691;51.374;-0.176;2024-01-16T06:40:18;12;12;
82667;PMS5003;72691;51.374;-0.176;2024-01-16T06:42:44;14;12;
82667;PMS5003;72691;51.374;-0.176;2024-01-16T06:45:10;12;10;
82667;PMS5003;72691;51.374;-0.176;2024-01-16T06:47:35;12;10;
82667;PMS5003;72691;51.374;-0.176;2024-01-16T06:50:01;16;14;
82667;PMS5003;72691;51.374;-0.176;2024-01-16T06:52:26;15;12;
82667;PMS5003;72691;51.374;-0.176;2024-01-16T06:54:51;11;11;
82667;PMS5003;72691;51.374;-0.176;2024-01-16T06:57:17;12;11;
82667;PMS5003;72691;51.374;-0.176;2024-01-16T06:59:42;13;12;
82667;PMS5003;72691;51.374;-0.176;2024-01-16T07:02:08;9;9;
82667;PMS5003;72691;51.374;-0.176;2024-01-16T07:04:33;12;12;
82667;PMS5003;72691;51.374;-0.176;2024-01-16T07:07:00;9;9;
82667;PMS5003;72691;51.374;-0.176;2024-01-16T07:09:25;9;8;
82667;PMS5003;72691;51.374;-0.176;2024-01-16T07:11:50;9;9;
82667;PMS5003;72691;51.374;-0.176;2024-01-16T07:14:15;8;8;
82667;PMS5003;72691;51.374;-0.176;2024-01-16T07:16:41;9;9;
82667;PMS5003;72691;51.374;-0.176;2024-01-16T07:19:07;15;14;
82667;PMS5003;72691;51.374;-0.176;2024-01-16T07:21:32;9;9;
82667;PMS5003;72691;51.374;-0.176;2024-01-16T07:23:58;11;9;
82667;PMS5003;72691;51.374;-0.176;2024-01-16T07:26:23;9;9;
82667;PMS5003;72691;51.374;-0.176;2024-01-16T07:28:50;9;9;
82667;PMS5003;72691;51.374;-0.176;2024-01-16T07:31:14;12;12;
82667;PMS5003;72691;51.374;-0.176;2024-01-16T07:33:40;9;8;
82667;PMS5003;72691;51.374;-0.176;2024-01-16T07:36:06;11;11;
82667;PMS5003;72691;51.374;-0.176;2024-01-16T07:38:31;9;9;
82667;PMS5003;72691;51.374;-0.176;2024-01-16T07:40:57;6;6;
82667;PMS5003;72691;51.374;-0.176;2024-01-16T07:43:22;8;8;
82667;PMS5003;72691;51.374;-0.176;2024-01-16T07:45:48;8;8;
82667;PMS5003;72691;51.374;-0.176;2024-01-16T07:48:13;8;8;
82667;PMS5003;72691;51.374;-0.176;2024-01-16T07:50:39;13;13;
82667;PMS5003;72691;51.374;-0.176;2024-01-16T07:53:05;26;26;
82667;PMS5003;72691;51.374;-0.176;2024-01-16T07:55:30;23;23;
82667;PMS5003;72691;51.374;-0.176;2024-01-16T07:57:56;26;26;
82667;PMS5003;72691;51.374;-0.176;2024-01-16T08:00:21;28;26;
82667;PMS5003;72691;51.374;-0.176;2024-01-16T08:02:46;23;22;
82667;PMS5003;72691;51.374;-0.176;2024-01-16T08:05:11;23;23;
82667;PMS5003;72691;51.374;-0.176;2024-01-16T08:07:37;29;24;
82667;PMS5003;72691;51.374;-0.176;2024-01-16T08:10:03;26;26;
82667;PMS5003;72691;51.374;-0.176;2024-01-16T08:12:28;26;23;
82667;PMS5003;72691;51.374;-0.176;2024-01-16T08:14:53;24;23;
82667;PMS5003;72691;51.374;-0.176;2024-01-16T08:17:19;27;26;
82667;PMS5003;72691;51.374;-0.176;2024-01-16T08:19:44;28;27;
82667;PMS5003;72691;51.374;-0.176;2024-01-16T08:22:10;36;35;
82667;PMS5003;72691;51.374;-0.176;2024-01-16T08:24:35;35;33;
82667;PMS5003;72691;51.374;-0.176;2024-01-16T08:27:01;27;27;
82667;PMS5003;72691;51.374;-0.176;2024-01-16T08:29:26;27;26;
82667;PMS5003;72691;51.374;-0.176;2024-01-16T08:31:52;29;29;
82667;PMS5003;72691;51.374;-0.176;2024-01-16T08:34:17;33;31;
82667;PMS5003;72691;51.374;-0.176;2024-01-16T08:36:43;34;32;
82667;PMS5003;72691;51.374;-0.176;2024-01-16T08:39:08;27;27;
82667;PMS5003;72691;51.374;-0.176;2024-01-16T08:41:34;23;23;
82667;PMS5003;72691;51.374;-0.176;2024-01-16T08:43:59;22;22;
82667;PMS5003;72691;51.374;-0.176;2024-01-16T08:46:25;16;16;
82667;PMS5003;72691;51.374;-0.176;2024-01-16T08:48:50;19;17;
82667;PMS5003;72691;51.374;-0.176;2024-01-16T08:51:16;19;17;
82667;PMS5003;72691;51.374;-0.176;2024-01-16T08:53:41;23;23;
82667;PMS5003;72691;51.374;-0.176;2024-01-16T08:56:07;23;22;
82667;PMS5003;72691;51.374;-0.176;2024-01-16T08:58:32;20;20;
82667;PMS5003;72691;51.374;-0.176;2024-01-16T09:00:57;20;19;
82667;PMS5003;72691;51.374;-0.176;2024-01-16T09:03:23;18;18;
82667;PMS5003;72691;51.374;-0.176;2024-01-16T09:05:49;23;21;
82667;PMS5003;72691;51.374;-0.176;2024-01-16T09:08:14;23;20;
82667;PMS5003;72691;51.374;-0.176;2024-01-16T09:10:39;33;31;
82667;PMS5003;72691;51.374;-0.176;2024-01-16T09:13:05;22;20;
82667;PMS5003;72691;51.374;-0.176;2024-01-16T09:15:30;28;28;
82667;PMS5003;72691;51.374;-0.176;2024-01-16T09:17:55;24;24;
82667;PMS5003;72691;51.374;-0.176;2024-01-16T09:20:21;28;26;
82667;PMS5003;72691;51.374;-0.176;2024-01-16T09:22:46;24;23;
82667;PMS5003;72691;51.374;-0.176;2024-01-16T09:25:12;25;22;
82667;PMS5003;72691;51.374;-0.176;2024-01-16T09:27:37;25;23;
82667;PMS5003;72691;51.374;-0.176;2024-01-16T09:30:03;23;20;
82667;PMS5003;72691;51.374;-0.176;2024-01-16T09:32:28;17;17;
82667;PMS5003;72691;51.374;-0.176;2024-01-16T09:34:54;21;21;
82667;PMS5003;72691;51.374;-0.176;2024-01-16T09:37:19;18;18;
82667;PMS5003;72691;51.374;-0.176;2024-01-16T09:39:45;12;12;
82667;PMS5003;72691;51.374;-0.176;2024-01-16T09:42:11;13;13;
82667;PMS5003;72691;51.374;-0.176;2024-01-16T09:44:36;13;12;
82667;PMS5003;72691;51.374;-0.176;2024-01-16T09:47:02;12;11;
82667;PMS5003;72691;51.374;-0.176;2024-01-16T09:49:27;12;12;
82667;PMS5003;72691;51.374;-0.176;2024-01-16T09:51:53;13;12;
82667;PMS5003;72691;51.374;-0.176;2024-01-16T09:54:18;12;12;
82667;PMS5003;72691;51.374;-0.176;2024-01-16T09:56:44;9;9;
82667;PMS5003;72691;51.374;-0.176;2024-01-16T09:59:09;10;9;
82667;PMS5003;72691;51.374;-0.176;2024-01-16T10:01:35;8;8;
82667;PMS5003;72691;51.374;-0.176;2024-01-16T10:04:00;7;7;
82667;PMS5003;72691;51.374;-0.176;2024-01-16T10:06:26;9;9;
82667;PMS5003;72691;51.374;-0.176;2024-01-16T10:08:51;10;7;
82667;PMS5003;72691;51.374;-0.176;2024-01-16T10:11:17;9;9;
82667;PMS5003;72691;51.374;-0.176;2024-01-16T10:13:43;9;7;
82667;PMS5003;72691;51.374;-0.176;2024-01-16T10:16:08;9;9;
82667;PMS5003;72691;51.374;-0.176;2024-01-16T10:18:34;7;7;
82667;PMS5003;72691;51.374;-0.176;2024-01-16T10:20:59;7;7;
82667;PMS5003;72691;51.374;-0.176;2024-01-16T10:23:25;6;5;
82667;PMS5003;72691;51.374;-0.176;2024-01-16T10:28:19;2;2;
82667;PMS5003;72691;51.374;-0.176;2024-01-16T10:30:41;2;2;
82667;PMS5003;72691;51.374;-0.176;2024-01-16T10:35:32;6;6;
82667;PMS5003;72691;51.374;-0.176;2024-01-16T10:37:58;10;10;
82667;PMS5003;72691;51.374;-0.176;2024-01-16T10:40:24;7;7;
82667;PMS5003;72691;51.374;-0.176;2024-01-16T10:45:16;7;7;
82667;PMS5003;72691;51.374;-0.176;2024-01-16T10:47:40;6;6;
82667;PMS5003;72691;51.374;-0.176;2024-01-16T10:50:05;6;6;
82667;PMS5003;72691;51.374;-0.176;2024-01-16T10:52:31;6;5;
82667;PMS5003;72691;51.374;-0.176;2024-01-16T10:54:56;7;7;
82667;PMS5003;72691;51.374;-0.176;2024-01-16T10:57:22;6;5;
82667;PMS5003;72691;51.374;-0.176;2024-01-16T10:59:48;3;3;
82667;PMS5003;72691;51.374;-0.176;2024-01-16T11:02:13;3;3;
82667;PMS5003;72691;51.374;-0.176;2024-01-16T11:04:38;7;7;
82667;PMS5003;72691;51.374;-0.176;2024-01-16T11:07:04;5;5;
82667;PMS5003;72691;51.374;-0.176;2024-01-16T11:09:29;2;2;
82667;PMS5003;72691;51.374;-0.176;2024-01-16T11:11:55;5;3;
82667;PMS5003;72691;51.374;-0.176;2024-01-16T11:14:21;3;3;
82667;PMS5003;72691;51.374;-0.176;2024-01-16T11:16:46;2;2;
82667;PMS5003;72691;51.374;-0.176;2024-01-16T11:19:11;5;3;
82667;PMS5003;72691;51.374;-0.176;2024-01-16T11:21:37;2;2;
82667;PMS5003;72691;51.374;-0.176;2024-01-16T11:24:03;3;3;
82667;PMS5003;72691;51.374;-0.176;2024-01-16T11:26:28;5;5;
82667;PMS5003;72691;51.374;-0.176;2024-01-16T11:28:53;5;5;
82667;PMS5003;72691;51.374;-0.176;2024-01-16T11:33:44;5;3;
82667;PMS5003;72691;51.374;-0.176;2024-01-16T11:38:36;2;2;
82667;PMS5003;72691;51.374;-0.176;2024-01-16T11:41:01;3;3;
82667;PMS5003;72691;51.374;-0.176;2024-01-16T11:43:34;2;2;
82667;PMS5003;72691;51.374;-0.176;2024-01-16T11:45:52;3;3;
82667;PMS5003;72691;51.374;-0.176;2024-01-16T11:48:18;7;6;
82667;PMS5003;72691;51.374;-0.176;2024-01-16T11:50:43;5;3;
82667;PMS5003;72691;51.374;-0.176;2024-01-16T11:53:09;6;6;
82667;PMS5003;72691;51.374;-0.176;2024-01-16T11:55:35;3;3;
82667;PMS5003;72691;51.374;-0.176;2024-01-16T12:00:25;3;3;
82667;PMS5003;72691;51.374;-0.176;2024-01-16T12:02:52;5;5;
82667;PMS5003;72691;51.374;-0.176;2024-01-16T12:05:17;7;7;
82667;PMS5003;72691;51.374;-0.176;2024-01-16T12:07:44;6;6;
82667;PMS5003;72691;51.374;-0.176;2024-01-16T12:10:07;6;6;
82667;PMS5003;72691;51.374;-0.176;2024-01-16T12:12:33;5;5;
82667;PMS5003;72691;51.374;-0.176;2024-01-16T12:14:58;7;6;
82667;PMS5003;72691;51.374;-0.176;2024-01-16T12:17:24;8;6;
82667;PMS5003;72691;51.374;-0.176;2024-01-16T12:19:49;6;6;
82667;PMS5003;72691;51.374;-0.176;2024-01-16T12:22:15;8;7;
82667;PMS5003;72691;51.374;-0.176;2024-01-16T12:24:40;8;7;
82667;PMS5003;72691;51.374;-0.176;2024-01-16T12:27:06;5;5;
82667;PMS5003;72691;51.374;-0.176;2024-01-16T12:29:31;10;8;
82667;PMS5003;72691;51.374;-0.176;2024-01-16T12:32:05;4;4;
82667;PMS5003;72691;51.374;-0.176;2024-01-16T12:34:22;8;7;
82667;PMS5003;72691;51.374;-0.176;2024-01-16T12:36:48;7;6;
82667;PMS5003;72691;51.374;-0.176;2024-01-16T12:39:13;8;7;
82667;PMS5003;72691;51.374;-0.176;2024-01-16T12:41:40;6;6;
82667;PMS5003;72691;51.374;-0.176;2024-01-16T12:44:05;5;5;
82667;PMS5003;72691;51.374;-0.176;2024-01-16T12:46:30;5;5;
82667;PMS5003;72691;51.374;-0.176;2024-01-16T12:49:00;5;5;
82667;PMS5003;72691;51.374;-0.176;2024-01-16T12:51:21;7;7;
82667;PMS5003;72691;51.374;-0.176;2024-01-16T12:53:46;6;6;
82667;PMS5003;72691;51.374;-0.176;2024-01-16T12:56:12;5;5;
82667;PMS5003;72691;51.374;-0.176;2024-01-16T12:58:37;3;3;
82667;PMS5003;72691;51.374;-0.176;2024-01-16T13:03:29;8;7;
82667;PMS5003;72691;51.374;-0.176;2024-01-16T13:05:54;10;10;
82667;PMS5003;72691;51.374;-0.176;2024-01-16T13:08:20;10;9;
82667;PMS5003;72691;51.374;-0.176;2024-01-16T13:10:46;6;6;
82667;PMS5003;72691;51.374;-0.176;2024-01-16T13:13:11;9;9;
82667;PMS5003;72691;51.374;-0.176;2024-01-16T13:15:36;6;6;
82667;PMS5003;72691;51.374;-0.176;2024-01-16T13:18:02;10;7;
82667;PMS5003;72691;51.374;-0.176;2024-01-16T13:20:27;7;6;
82667;PMS5003;72691;51.374;-0.176;2024-01-16T13:22:53;10;10;
82667;PMS5003;72691;51.374;-0.176;2024-01-16T13:25:18;11;10;
82667;PMS5003;72691;51.374;-0.176;2024-01-16T13:27:43;11;11;
82667;PMS5003;72691;51.374;-0.176;2024-01-16T13:30:09;7;7;
82667;PMS5003;72691;51.374;-0.176;2024-01-16T13:32:35;8;8;
82667;PMS5003;72691;51.374;-0.176;2024-01-16T13:35:00;7;7;
82667;PMS5003;72691;51.374;-0.176;2024-01-16T13:37:25;7;6;
82667;PMS5003;72691;51.374;-0.176;2024-01-16T13:39:51;6;6;
82667;PMS5003;72691;51.374;-0.176;2024-01-16T13:42:17;8;6;
82667;PMS5003;72691;51.374;-0.176;2024-01-16T13:44:42;9;8;
82667;PMS5003;72691;51.374;-0.176;2024-01-16T13:47:07;10;10;
82667;PMS5003;72691;51.374;-0.176;2024-01-16T13:49:33;7;7;
82667;PMS5003;72691;51.374;-0.176;2024-01-16T13:51:58;8;7;
82667;PMS5003;72691;51.374;-0.176;2024-01-16T13:54:23;11;9;
82667;PMS5003;72691;51.374;-0.176;2024-01-16T13:56:49;11;10;
82667;PMS5003;72691;51.374;-0.176;2024-01-16T13:59:14;9;9;
82667;PMS5003;72691;51.374;-0.176;2024-01-16T14:01:40;7;7;
82667;PMS5003;72691;51.374;-0.176;2024-01-16T14:04:05;8;7;
82667;PMS5003;72691;51.374;-0.176;2024-01-16T14:06:31;11;11;
82667;PMS5003;72691;51.374;-0.176;2024-01-16T14:08:56;8;8;
82667;PMS5003;72691;51.374;-0.176;2024-01-16T14:11:23;7;7;
82667;PMS5003;72691;51.374;-0.176;2024-01-16T14:13:47;7;7;
82667;PMS5003;72691;51.374;-0.176;2024-01-16T14:16:13;8;8;
82667;PMS5003;72691;51.374;-0.176;2024-01-16T14:18:38;8;7;
82667;PMS5003;72691;51.374;-0.176;2024-01-16T14:21:04;7;7;
82667;PMS5003;72691;51.374;-0.176;2024-01-16T14:23:29;7;7;
82667;PMS5003;72691;51.374;-0.176;2024-01-16T14:25:55;8;8;
82667;PMS5003;72691;51.374;-0.176;2024-01-16T14:28:20;7;7;
82667;PMS5003;72691;51.374;-0.176;2024-01-16T14:30:46;10;10;
82667;PMS5003;72691;51.374;-0.176;2024-01-16T14:33:11;10;9;
82667;PMS5003;72691;51.374;-0.176;2024-01-16T14:35:37;12;12;
82667;PMS5003;72691;51.374;-0.176;2024-01-16T14:38:03;11;11;
82667;PMS5003;72691;51.374;-0.176;2024-01-16T14:40:28;19;19;
82667;PMS5003;72691;51.374;-0.176;2024-01-16T14:42:53;16;16;
82667;PMS5003;72691;51.374;-0.176;2024-01-16T14:45:19;28;26;
82667;PMS5003;72691;51.374;-0.176;2024-01-16T14:47:44;15;14;
82667;PMS5003;72691;51.374;-0.176;2024-01-16T14:50:10;12;10;
82667;PMS5003;72691;51.374;-0.176;2024-01-16T14:52:36;11;9;
82667;PMS5003;72691;51.374;-0.176;2024-01-16T14:55:01;11;8;
82667;PMS5003;72691;51.374;-0.176;2024-01-16T14:57:27;8;8;
82667;PMS5003;72691;51.374;-0.176;2024-01-16T14:59:52;7;7;
82667;PMS5003;72691;51.374;-0.176;2024-01-16T15:02:18;11;11;
82667;PMS5003;72691;51.374;-0.176;2024-01-16T15:04:43;10;10;
82667;PMS5003;72691;51.374;-0.176;2024-01-16T15:07:09;10;10;
82667;PMS5003;72691;51.374;-0.176;2024-01-16T15:09:34;7;7;
82667;PMS5003;72691;51.374;-0.176;2024-01-16T15:12:00;11;11;
82667;PMS5003;72691;51.374;-0.176;2024-01-16T15:14:25;10;10;
82667;PMS5003;72691;51.374;-0.176;2024-01-16T15:16:51;10;10;
82667;PMS5003;72691;51.374;-0.176;2024-01-16T15:19:16;7;7;
82667;PMS5003;72691;51.374;-0.176;2024-01-16T15:21:42;9;9;
82667;PMS5003;72691;51.374;-0.176;2024-01-16T15:24:07;9;9;
82667;PMS5003;72691;51.374;-0.176;2024-01-16T15:26:33;10;9;
82667;PMS5003;72691;51.374;-0.176;2024-01-16T15:28:58;9;9;
82667;PMS5003;72691;51.374;-0.176;2024-01-16T15:31:24;11;11;
82667;PMS5003;72691;51.374;-0.176;2024-01-16T15:33:49;9;9;
82667;PMS5003;72691;51.374;-0.176;2024-01-16T15:36:15;9;9;
82667;PMS5003;72691;51.374;-0.176;2024-01-16T15:38:40;10;10;
82667;PMS5003;72691;51.374;-0.176;2024-01-16T15:41:05;14;14;
82667;PMS5003;72691;51.374;-0.176;2024-01-16T15:43:31;10;10;
82667;PMS5003;72691;51.374;-0.176;2024-01-16T15:45:56;13;12;
82667;PMS5003;72691;51.374;-0.176;2024-01-16T15:48:22;12;12;
82667;PMS5003;72691;51.374;-0.176;2024-01-16T15:50:48;12;12;
82667;PMS5003;72691;51.374;-0.176;2024-01-16T15:53:13;13;13;
82667;PMS5003;72691;51.374;-0.176;2024-01-16T15:55:39;10;10;
82667;PMS5003;72691;51.374;-0.176;2024-01-16T15:58:04;10;10;
82667;PMS5003;72691;51.374;-0.176;2024-01-16T16:00:30;13;10;
82667;PMS5003;72691;51.374;-0.176;2024-01-16T16:02:55;12;12;
82667;PMS5003;72691;51.374;-0.176;2024-01-16T16:05:21;9;9;
82667;PMS5003;72691;51.374;-0.176;2024-01-16T16:07:46;7;7;
82667;PMS5003;72691;51.374;-0.176;2024-01-16T16:10:12;10;10;
82667;PMS5003;72691;51.374;-0.176;2024-01-16T16:12:37;9;9;
82667;PMS5003;72691;51.374;-0.176;2024-01-16T16:15:03;10;9;
82667;PMS5003;72691;51.374;-0.176;2024-01-16T16:17:28;10;10;
82667;PMS5003;72691;51.374;-0.176;2024-01-16T16:19:53;9;9;